Terminal Aerodrome Forecast
Issued by NWS Amarillo, TX

Home | Current Version | Previous Version | Text Only | Print | Product List | Glossary On
Versions: 1 2 3 4 5 6 7 8 9 10 11 12 13 14 15 16 17 18
000
FTUS44 KAMA 012300
TAFAMA
TAF
KAMA 012320Z 0200/0224 24015G25KT P6SM FEW200
     FM020400 24011KT P6SM FEW200
     FM020800 34010KT P6SM SKC
     FM021100 02008KT P6SM FEW100 FEW200
     FM021900 23018G28KT P6SM SCT100 SCT200=

USA.gov is the U.S. government's official web portal to all federal, state and local government web resources and services.